sensor_id;sensor_type;location;lat;lon;timestamp;P1;durP1;ratioP1;P2;durP2;ratioP2
18190;SDS011;47004;51.366;12.348;2024-02-28T00:00:37;27.03;;;11.43;;
18190;SDS011;47004;51.366;12.348;2024-02-28T00:02:39;26.20;;;11.53;;
18190;SDS011;47004;51.366;12.348;2024-02-28T00:04:41;26.67;;;11.33;;
18190;SDS011;47004;51.366;12.348;2024-02-28T00:06:43;25.57;;;11.07;;
18190;SDS011;47004;51.366;12.348;2024-02-28T00:08:46;28.23;;;11.70;;
18190;SDS011;47004;51.366;12.348;2024-02-28T00:10:49;22.23;;;10.27;;
18190;SDS011;47004;51.366;12.348;2024-02-28T00:12:51;24.37;;;10.47;;
18190;SDS011;47004;51.366;12.348;2024-02-28T00:14:53;23.47;;;10.37;;
18190;SDS011;47004;51.366;12.348;2024-02-28T00:16:57;22.80;;;10.87;;
18190;SDS011;47004;51.366;12.348;2024-02-28T00:18:59;24.50;;;11.63;;
18190;SDS011;47004;51.366;12.348;2024-02-28T00:21:01;25.77;;;11.70;;
18190;SDS011;47004;51.366;12.348;2024-02-28T00:23:04;24.90;;;11.63;;
18190;SDS011;47004;51.366;12.348;2024-02-28T00:25:07;24.67;;;10.83;;
18190;SDS011;47004;51.366;12.348;2024-02-28T00:27:11;24.97;;;10.87;;
18190;SDS011;47004;51.366;12.348;2024-02-28T00:29:13;22.57;;;10.57;;
18190;SDS011;47004;51.366;12.348;2024-02-28T00:31:16;23.60;;;10.83;;
18190;SDS011;47004;51.366;12.348;2024-02-28T00:33:18;25.73;;;11.23;;
18190;SDS011;47004;51.366;12.348;2024-02-28T00:35:20;18.93;;;9.90;;
18190;SDS011;47004;51.366;12.348;2024-02-28T00:37:22;24.30;;;11.57;;
18190;SDS011;47004;51.366;12.348;2024-02-28T00:39:25;26.27;;;10.80;;
18190;SDS011;47004;51.366;12.348;2024-02-28T00:41:27;25.20;;;11.07;;
18190;SDS011;47004;51.366;12.348;2024-02-28T00:43:29;27.67;;;11.03;;
18190;SDS011;47004;51.366;12.348;2024-02-28T00:45:31;24.90;;;11.97;;
18190;SDS011;47004;51.366;12.348;2024-02-28T00:47:34;24.60;;;10.80;;
18190;SDS011;47004;51.366;12.348;2024-02-28T00:49:36;26.97;;;12.03;;
18190;SDS011;47004;51.366;12.348;2024-02-28T00:51:39;28.93;;;12.80;;
18190;SDS011;47004;51.366;12.348;2024-02-28T00:53:41;29.33;;;12.30;;
18190;SDS011;47004;51.366;12.348;2024-02-28T00:55:43;25.70;;;11.13;;
18190;SDS011;47004;51.366;12.348;2024-02-28T00:57:46;24.87;;;11.67;;
18190;SDS011;47004;51.366;12.348;2024-02-28T00:59:48;26.90;;;12.20;;
18190;SDS011;47004;51.366;12.348;2024-02-28T01:01:49;25.87;;;11.50;;
18190;SDS011;47004;51.366;12.348;2024-02-28T01:03:53;23.47;;;11.77;;
18190;SDS011;47004;51.366;12.348;2024-02-28T01:05:55;24.90;;;11.50;;
18190;SDS011;47004;51.366;12.348;2024-02-28T01:08:01;25.73;;;11.90;;
18190;SDS011;47004;51.366;12.348;2024-02-28T01:10:03;24.57;;;11.63;;
18190;SDS011;47004;51.366;12.348;2024-02-28T01:12:05;27.17;;;11.97;;
18190;SDS011;47004;51.366;12.348;2024-02-28T01:14:07;27.83;;;11.60;;
18190;SDS011;47004;51.366;12.348;2024-02-28T01:16:08;25.33;;;12.07;;
18190;SDS011;47004;51.366;12.348;2024-02-28T01:18:10;21.13;;;10.27;;
18190;SDS011;47004;51.366;12.348;2024-02-28T01:20:14;25.63;;;11.87;;
18190;SDS011;47004;51.366;12.348;2024-02-28T01:22:17;21.27;;;10.13;;
18190;SDS011;47004;51.366;12.348;2024-02-28T01:24:18;24.17;;;10.60;;
18190;SDS011;47004;51.366;12.348;2024-02-28T01:26:20;25.70;;;11.93;;
18190;SDS011;47004;51.366;12.348;2024-02-28T01:28:22;21.43;;;10.20;;
18190;SDS011;47004;51.366;12.348;2024-02-28T01:30:24;27.07;;;11.13;;
18190;SDS011;47004;51.366;12.348;2024-02-28T01:32:27;21.07;;;10.63;;
18190;SDS011;47004;51.366;12.348;2024-02-28T01:34:30;17.93;;;9.80;;
18190;SDS011;47004;51.366;12.348;2024-02-28T01:36:33;23.20;;;11.40;;
18190;SDS011;47004;51.366;12.348;2024-02-28T01:38:35;23.03;;;10.87;;
18190;SDS011;47004;51.366;12.348;2024-02-28T01:40:36;22.67;;;10.80;;
18190;SDS011;47004;51.366;12.348;2024-02-28T01:42:38;23.17;;;11.33;;
18190;SDS011;47004;51.366;12.348;2024-02-28T01:44:41;23.47;;;11.00;;
18190;SDS011;47004;51.366;12.348;2024-02-28T01:46:45;27.53;;;12.47;;
18190;SDS011;47004;51.366;12.348;2024-02-28T01:48:47;29.97;;;12.83;;
18190;SDS011;47004;51.366;12.348;2024-02-28T01:50:49;27.07;;;11.73;;
18190;SDS011;47004;51.366;12.348;2024-02-28T01:52:52;25.83;;;11.20;;
18190;SDS011;47004;51.366;12.348;2024-02-28T01:54:53;25.13;;;12.07;;
18190;SDS011;47004;51.366;12.348;2024-02-28T01:56:55;23.53;;;12.27;;
18190;SDS011;47004;51.366;12.348;2024-02-28T01:58:58;31.60;;;13.63;;
18190;SDS011;47004;51.366;12.348;2024-02-28T02:01:03;26.63;;;12.50;;
18190;SDS011;47004;51.366;12.348;2024-02-28T02:03:06;29.57;;;12.90;;
18190;SDS011;47004;51.366;12.348;2024-02-28T02:05:11;27.77;;;12.97;;
18190;SDS011;47004;51.366;12.348;2024-02-28T02:07:13;28.93;;;13.33;;
18190;SDS011;47004;51.366;12.348;2024-02-28T02:09:16;29.83;;;14.17;;
18190;SDS011;47004;51.366;12.348;2024-02-28T02:11:18;30.13;;;13.73;;
18190;SDS011;47004;51.366;12.348;2024-02-28T02:13:24;25.90;;;12.30;;
18190;SDS011;47004;51.366;12.348;2024-02-28T02:15:26;33.17;;;14.23;;
18190;SDS011;47004;51.366;12.348;2024-02-28T02:17:30;33.37;;;14.77;;
18190;SDS011;47004;51.366;12.348;2024-02-28T02:19:32;31.80;;;14.97;;
18190;SDS011;47004;51.366;12.348;2024-02-28T02:21:34;31.20;;;14.73;;
18190;SDS011;47004;51.366;12.348;2024-02-28T02:23:42;31.83;;;14.33;;
18190;SDS011;47004;51.366;12.348;2024-02-28T02:25:44;28.97;;;13.97;;
18190;SDS011;47004;51.366;12.348;2024-02-28T02:27:46;32.93;;;14.70;;
18190;SDS011;47004;51.366;12.348;2024-02-28T02:29:49;31.83;;;14.73;;
18190;SDS011;47004;51.366;12.348;2024-02-28T02:31:51;35.57;;;14.87;;
18190;SDS011;47004;51.366;12.348;2024-02-28T02:33:52;29.40;;;14.47;;
18190;SDS011;47004;51.366;12.348;2024-02-28T02:35:55;33.07;;;14.60;;
18190;SDS011;47004;51.366;12.348;2024-02-28T02:37:56;31.33;;;13.33;;
18190;SDS011;47004;51.366;12.348;2024-02-28T02:40:00;32.00;;;14.83;;
18190;SDS011;47004;51.366;12.348;2024-02-28T02:42:02;35.13;;;14.63;;
18190;SDS011;47004;51.366;12.348;2024-02-28T02:44:04;30.53;;;13.70;;
18190;SDS011;47004;51.366;12.348;2024-02-28T02:46:06;35.67;;;14.33;;
18190;SDS011;47004;51.366;12.348;2024-02-28T02:48:07;34.70;;;14.50;;
18190;SDS011;47004;51.366;12.348;2024-02-28T02:50:09;34.93;;;14.83;;
18190;SDS011;47004;51.366;12.348;2024-02-28T02:52:12;34.93;;;13.70;;
18190;SDS011;47004;51.366;12.348;2024-02-28T02:54:17;32.03;;;13.80;;
18190;SDS011;47004;51.366;12.348;2024-02-28T02:56:20;27.13;;;13.47;;
18190;SDS011;47004;51.366;12.348;2024-02-28T02:58:22;32.33;;;14.30;;
18190;SDS011;47004;51.366;12.348;2024-02-28T03:00:24;31.17;;;13.57;;
18190;SDS011;47004;51.366;12.348;2024-02-28T03:02:26;33.27;;;14.33;;
18190;SDS011;47004;51.366;12.348;2024-02-28T03:04:28;31.10;;;14.77;;
18190;SDS011;47004;51.366;12.348;2024-02-28T03:06:30;31.57;;;14.20;;
18190;SDS011;47004;51.366;12.348;2024-02-28T03:08:33;32.80;;;14.63;;
18190;SDS011;47004;51.366;12.348;2024-02-28T03:10:35;29.60;;;13.90;;
18190;SDS011;47004;51.366;12.348;2024-02-28T03:12:37;33.57;;;15.60;;
18190;SDS011;47004;51.366;12.348;2024-02-28T03:14:39;31.33;;;14.37;;
18190;SDS011;47004;51.366;12.348;2024-02-28T03:16:41;33.07;;;14.60;;
18190;SDS011;47004;51.366;12.348;2024-02-28T03:18:43;32.97;;;15.23;;
18190;SDS011;47004;51.366;12.348;2024-02-28T03:20:45;37.13;;;14.93;;
18190;SDS011;47004;51.366;12.348;2024-02-28T03:22:47;34.53;;;14.93;;
18190;SDS011;47004;51.366;12.348;2024-02-28T03:24:49;30.23;;;14.37;;
18190;SDS011;47004;51.366;12.348;2024-02-28T03:26:53;31.37;;;14.23;;
18190;SDS011;47004;51.366;12.348;2024-02-28T03:28:56;34.67;;;14.90;;
18190;SDS011;47004;51.366;12.348;2024-02-28T03:30:59;31.97;;;14.30;;
18190;SDS011;47004;51.366;12.348;2024-02-28T03:33:00;30.43;;;13.80;;
18190;SDS011;47004;51.366;12.348;2024-02-28T03:35:01;28.10;;;12.83;;
18190;SDS011;47004;51.366;12.348;2024-02-28T03:37:04;32.00;;;14.07;;
18190;SDS011;47004;51.366;12.348;2024-02-28T03:39:06;27.93;;;13.87;;
18190;SDS011;47004;51.366;12.348;2024-02-28T03:41:07;32.50;;;14.90;;
18190;SDS011;47004;51.366;12.348;2024-02-28T03:43:09;27.37;;;13.73;;
18190;SDS011;47004;51.366;12.348;2024-02-28T03:45:14;29.87;;;13.87;;
18190;SDS011;47004;51.366;12.348;2024-02-28T03:47:16;26.23;;;12.80;;
18190;SDS011;47004;51.366;12.348;2024-02-28T03:49:18;28.43;;;13.00;;
18190;SDS011;47004;51.366;12.348;2024-02-28T03:51:20;26.43;;;13.10;;
18190;SDS011;47004;51.366;12.348;2024-02-28T03:53:21;28.47;;;13.93;;
18190;SDS011;47004;51.366;12.348;2024-02-28T03:55:23;29.37;;;13.63;;
18190;SDS011;47004;51.366;12.348;2024-02-28T03:57:25;28.20;;;13.37;;
18190;SDS011;47004;51.366;12.348;2024-02-28T03:59:26;30.50;;;13.07;;
18190;SDS011;47004;51.366;12.348;2024-02-28T04:01:29;28.30;;;13.30;;
18190;SDS011;47004;51.366;12.348;2024-02-28T04:03:32;32.57;;;13.90;;
18190;SDS011;47004;51.366;12.348;2024-02-28T04:05:33;31.23;;;13.60;;
18190;SDS011;47004;51.366;12.348;2024-02-28T04:07:36;31.03;;;14.00;;
18190;SDS011;47004;51.366;12.348;2024-02-28T04:09:37;28.87;;;13.90;;
18190;SDS011;47004;51.366;12.348;2024-02-28T04:11:39;26.80;;;12.83;;
18190;SDS011;47004;51.366;12.348;2024-02-28T04:13:42;30.97;;;14.07;;
18190;SDS011;47004;51.366;12.348;2024-02-28T04:15:44;30.50;;;14.87;;
18190;SDS011;47004;51.366;12.348;2024-02-28T04:17:48;30.47;;;14.17;;
18190;SDS011;47004;51.366;12.348;2024-02-28T04:19:49;36.27;;;15.47;;
18190;SDS011;47004;51.366;12.348;2024-02-28T04:21:51;34.37;;;15.30;;
18190;SDS011;47004;51.366;12.348;2024-02-28T04:23:53;34.00;;;14.50;;
18190;SDS011;47004;51.366;12.348;2024-02-28T04:25:54;34.17;;;16.37;;
18190;SDS011;47004;51.366;12.348;2024-02-28T04:27:56;34.17;;;15.03;;
18190;SDS011;47004;51.366;12.348;2024-02-28T04:29:57;31.33;;;14.23;;
18190;SDS011;47004;51.366;12.348;2024-02-28T04:31:59;35.23;;;15.33;;
18190;SDS011;47004;51.366;12.348;2024-02-28T04:34:02;34.13;;;15.23;;
18190;SDS011;47004;51.366;12.348;2024-02-28T04:36:04;34.37;;;15.83;;
18190;SDS011;47004;51.366;12.348;2024-02-28T04:38:06;38.23;;;16.73;;
18190;SDS011;47004;51.366;12.348;2024-02-28T04:40:09;33.70;;;15.83;;
18190;SDS011;47004;51.366;12.348;2024-02-28T04:42:12;38.57;;;17.33;;
18190;SDS011;47004;51.366;12.348;2024-02-28T04:44:14;34.53;;;16.97;;
18190;SDS011;47004;51.366;12.348;2024-02-28T04:46:18;41.10;;;17.83;;
18190;SDS011;47004;51.366;12.348;2024-02-28T04:48:22;37.97;;;16.93;;
18190;SDS011;47004;51.366;12.348;2024-02-28T04:50:26;39.47;;;17.20;;
18190;SDS011;47004;51.366;12.348;2024-02-28T04:52:28;37.73;;;17.00;;
18190;SDS011;47004;51.366;12.348;2024-02-28T04:54:30;32.67;;;16.47;;
18190;SDS011;47004;51.366;12.348;2024-02-28T04:56:32;36.47;;;16.90;;
18190;SDS011;47004;51.366;12.348;2024-02-28T04:58:35;35.27;;;16.20;;
18190;SDS011;47004;51.366;12.348;2024-02-28T05:00:42;37.93;;;17.13;;
18190;SDS011;47004;51.366;12.348;2024-02-28T05:02:44;37.37;;;17.03;;
18190;SDS011;47004;51.366;12.348;2024-02-28T05:04:46;35.87;;;17.17;;
18190;SDS011;47004;51.366;12.348;2024-02-28T05:06:49;40.50;;;18.13;;
18190;SDS011;47004;51.366;12.348;2024-02-28T05:08:51;37.13;;;17.03;;
18190;SDS011;47004;51.366;12.348;2024-02-28T05:10:55;36.60;;;17.53;;
18190;SDS011;47004;51.366;12.348;2024-02-28T05:12:57;39.67;;;18.30;;
18190;SDS011;47004;51.366;12.348;2024-02-28T05:14:59;31.93;;;16.57;;
18190;SDS011;47004;51.366;12.348;2024-02-28T05:17:01;32.90;;;16.37;;
18190;SDS011;47004;51.366;12.348;2024-02-28T05:19:03;37.87;;;16.77;;
18190;SDS011;47004;51.366;12.348;2024-02-28T05:21:05;36.07;;;16.03;;
18190;SDS011;47004;51.366;12.348;2024-02-28T05:23:09;32.50;;;14.90;;
18190;SDS011;47004;51.366;12.348;2024-02-28T05:25:11;31.60;;;14.97;;
18190;SDS011;47004;51.366;12.348;2024-02-28T05:27:13;30.63;;;15.03;;
18190;SDS011;47004;51.366;12.348;2024-02-28T05:29:15;32.17;;;15.27;;
18190;SDS011;47004;51.366;12.348;2024-02-28T05:31:20;31.73;;;15.43;;
18190;SDS011;47004;51.366;12.348;2024-02-28T05:33:23;33.23;;;14.57;;
18190;SDS011;47004;51.366;12.348;2024-02-28T05:35:24;34.03;;;15.50;;
18190;SDS011;47004;51.366;12.348;2024-02-28T05:37:26;38.87;;;15.60;;
18190;SDS011;47004;51.366;12.348;2024-02-28T05:39:30;31.77;;;15.20;;
18190;SDS011;47004;51.366;12.348;2024-02-28T05:41:31;30.33;;;15.10;;
18190;SDS011;47004;51.366;12.348;2024-02-28T05:43:33;33.63;;;16.00;;
18190;SDS011;47004;51.366;12.348;2024-02-28T05:45:36;31.83;;;15.00;;
18190;SDS011;47004;51.366;12.348;2024-02-28T05:47:38;31.17;;;15.77;;
18190;SDS011;47004;51.366;12.348;2024-02-28T05:49:40;34.20;;;15.70;;
18190;SDS011;47004;51.366;12.348;2024-02-28T05:51:41;31.43;;;15.30;;
18190;SDS011;47004;51.366;12.348;2024-02-28T05:53:43;38.30;;;15.83;;
18190;SDS011;47004;51.366;12.348;2024-02-28T05:55:47;35.13;;;16.33;;
18190;SDS011;47004;51.366;12.348;2024-02-28T05:57:49;34.30;;;15.23;;
18190;SDS011;47004;51.366;12.348;2024-02-28T05:59:51;30.97;;;15.57;;
18190;SDS011;47004;51.366;12.348;2024-02-28T06:01:52;31.57;;;14.97;;
18190;SDS011;47004;51.366;12.348;2024-02-28T06:03:54;31.50;;;15.07;;
18190;SDS011;47004;51.366;12.348;2024-02-28T06:05:56;31.03;;;13.90;;
18190;SDS011;47004;51.366;12.348;2024-02-28T06:07:58;32.23;;;14.93;;
18190;SDS011;47004;51.366;12.348;2024-02-28T06:10:00;32.50;;;15.20;;
18190;SDS011;47004;51.366;12.348;2024-02-28T06:12:04;33.67;;;14.87;;
18190;SDS011;47004;51.366;12.348;2024-02-28T06:14:06;33.90;;;14.83;;
18190;SDS011;47004;51.366;12.348;2024-02-28T06:16:13;35.77;;;15.10;;
18190;SDS011;47004;51.366;12.348;2024-02-28T06:18:15;35.07;;;15.37;;
18190;SDS011;47004;51.366;12.348;2024-02-28T06:20:16;35.40;;;15.53;;
18190;SDS011;47004;51.366;12.348;2024-02-28T06:22:18;33.17;;;15.03;;
18190;SDS011;47004;51.366;12.348;2024-02-28T06:24:20;32.67;;;15.40;;
18190;SDS011;47004;51.366;12.348;2024-02-28T06:26:22;30.50;;;13.83;;
18190;SDS011;47004;51.366;12.348;2024-02-28T06:28:26;28.40;;;14.20;;
18190;SDS011;47004;51.366;12.348;2024-02-28T06:30:28;28.07;;;14.37;;
18190;SDS011;47004;51.366;12.348;2024-02-28T06:32:30;30.03;;;14.80;;
18190;SDS011;47004;51.366;12.348;2024-02-28T06:34:32;34.27;;;15.03;;
18190;SDS011;47004;51.366;12.348;2024-02-28T06:36:33;33.20;;;15.23;;
18190;SDS011;47004;51.366;12.348;2024-02-28T06:38:35;33.43;;;15.83;;
18190;SDS011;47004;51.366;12.348;2024-02-28T06:40:37;29.83;;;15.03;;
18190;SDS011;47004;51.366;12.348;2024-02-28T06:42:39;33.53;;;13.97;;
18190;SDS011;47004;51.366;12.348;2024-02-28T06:44:42;31.10;;;14.77;;
18190;SDS011;47004;51.366;12.348;2024-02-28T06:46:44;32.83;;;14.80;;
18190;SDS011;47004;51.366;12.348;2024-02-28T06:48:46;34.40;;;14.60;;
18190;SDS011;47004;51.366;12.348;2024-02-28T06:50:48;30.10;;;14.40;;
18190;SDS011;47004;51.366;12.348;2024-02-28T06:52:50;29.07;;;13.37;;
18190;SDS011;47004;51.366;12.348;2024-02-28T06:54:53;27.30;;;13.27;;
18190;SDS011;47004;51.366;12.348;2024-02-28T06:56:55;30.17;;;13.63;;
18190;SDS011;47004;51.366;12.348;2024-02-28T06:58:57;28.07;;;12.97;;
18190;SDS011;47004;51.366;12.348;2024-02-28T07:01:00;23.97;;;12.63;;
18190;SDS011;47004;51.366;12.348;2024-02-28T07:03:03;27.80;;;13.70;;
18190;SDS011;47004;51.366;12.348;2024-02-28T07:05:05;27.10;;;12.40;;
18190;SDS011;47004;51.366;12.348;2024-02-28T07:07:08;28.87;;;13.83;;
18190;SDS011;47004;51.366;12.348;2024-02-28T07:09:10;28.33;;;13.10;;
18190;SDS011;47004;51.366;12.348;2024-02-28T07:11:13;24.10;;;12.60;;
18190;SDS011;47004;51.366;12.348;2024-02-28T07:13:15;29.93;;;13.10;;
18190;SDS011;47004;51.366;12.348;2024-02-28T07:15:16;26.00;;;12.03;;
18190;SDS011;47004;51.366;12.348;2024-02-28T07:17:21;30.33;;;13.37;;
18190;SDS011;47004;51.366;12.348;2024-02-28T07:19:23;26.67;;;12.33;;
18190;SDS011;47004;51.366;12.348;2024-02-28T07:21:25;28.10;;;13.57;;
18190;SDS011;47004;51.366;12.348;2024-02-28T07:23:27;29.07;;;14.00;;
18190;SDS011;47004;51.366;12.348;2024-02-28T07:25:29;29.03;;;13.60;;
18190;SDS011;47004;51.366;12.348;2024-02-28T07:27:32;29.70;;;14.03;;
18190;SDS011;47004;51.366;12.348;2024-02-28T07:29:33;32.93;;;15.03;;
18190;SDS011;47004;51.366;12.348;2024-02-28T07:31:35;36.43;;;16.73;;
18190;SDS011;47004;51.366;12.348;2024-02-28T07:33:37;31.67;;;15.33;;
18190;SDS011;47004;51.366;12.348;2024-02-28T07:35:44;36.30;;;16.47;;
18190;SDS011;47004;51.366;12.348;2024-02-28T07:37:45;35.37;;;15.63;;
18190;SDS011;47004;51.366;12.348;2024-02-28T07:39:47;37.77;;;16.83;;
18190;SDS011;47004;51.366;12.348;2024-02-28T07:41:49;42.60;;;18.93;;
18190;SDS011;47004;51.366;12.348;2024-02-28T07:43:51;44.00;;;18.87;;
18190;SDS011;47004;51.366;12.348;2024-02-28T07:45:53;42.53;;;20.00;;
18190;SDS011;47004;51.366;12.348;2024-02-28T07:47:54;49.10;;;20.57;;
18190;SDS011;47004;51.366;12.348;2024-02-28T07:50:00;50.93;;;20.93;;
18190;SDS011;47004;51.366;12.348;2024-02-28T07:52:02;46.87;;;20.90;;
18190;SDS011;47004;51.366;12.348;2024-02-28T07:54:03;46.53;;;19.27;;
18190;SDS011;47004;51.366;12.348;2024-02-28T07:56:06;44.27;;;18.70;;
18190;SDS011;47004;51.366;12.348;2024-02-28T07:58:08;38.77;;;17.03;;
18190;SDS011;47004;51.366;12.348;2024-02-28T08:00:12;40.90;;;17.77;;
18190;SDS011;47004;51.366;12.348;2024-02-28T08:02:16;38.20;;;17.70;;
18190;SDS011;47004;51.366;12.348;2024-02-28T08:04:20;41.47;;;19.20;;
18190;SDS011;47004;51.366;12.348;2024-02-28T08:06:23;39.60;;;18.93;;
18190;SDS011;47004;51.366;12.348;2024-02-28T08:08:25;40.23;;;18.13;;
18190;SDS011;47004;51.366;12.348;2024-02-28T08:10:27;41.97;;;19.00;;
18190;SDS011;47004;51.366;12.348;2024-02-28T08:12:29;41.40;;;19.10;;
18190;SDS011;47004;51.366;12.348;2024-02-28T08:14:32;43.97;;;19.47;;
18190;SDS011;47004;51.366;12.348;2024-02-28T08:16:34;39.67;;;18.50;;
18190;SDS011;47004;51.366;12.348;2024-02-28T08:18:36;39.20;;;18.27;;
18190;SDS011;47004;51.366;12.348;2024-02-28T08:20:38;40.67;;;18.27;;
18190;SDS011;47004;51.366;12.348;2024-02-28T08:22:41;39.33;;;18.53;;
18190;SDS011;47004;51.366;12.348;2024-02-28T08:24:43;43.83;;;20.37;;
18190;SDS011;47004;51.366;12.348;2024-02-28T08:26:44;37.10;;;18.13;;
18190;SDS011;47004;51.366;12.348;2024-02-28T08:28:46;40.47;;;20.47;;
18190;SDS011;47004;51.366;12.348;2024-02-28T08:30:47;43.63;;;19.27;;
18190;SDS011;47004;51.366;12.348;2024-02-28T08:32:50;42.70;;;20.17;;
18190;SDS011;47004;51.366;12.348;2024-02-28T08:34:52;40.60;;;18.60;;
18190;SDS011;47004;51.366;12.348;2024-02-28T08:36:54;40.90;;;20.10;;
18190;SDS011;47004;51.366;12.348;2024-02-28T08:38:57;45.07;;;20.93;;
18190;SDS011;47004;51.366;12.348;2024-02-28T08:40:59;43.70;;;21.20;;
18190;SDS011;47004;51.366;12.348;2024-02-28T08:43:01;44.87;;;21.23;;
18190;SDS011;47004;51.366;12.348;2024-02-28T08:45:03;43.20;;;21.40;;
18190;SDS011;47004;51.366;12.348;2024-02-28T08:47:06;39.47;;;18.97;;
18190;SDS011;47004;51.366;12.348;2024-02-28T08:49:09;42.73;;;21.57;;
18190;SDS011;47004;51.366;12.348;2024-02-28T08:51:11;42.00;;;20.33;;
18190;SDS011;47004;51.366;12.348;2024-02-28T08:53:13;44.17;;;21.67;;
18190;SDS011;47004;51.366;12.348;2024-02-28T08:55:15;42.53;;;22.03;;
18190;SDS011;47004;51.366;12.348;2024-02-28T08:57:18;38.00;;;19.80;;
18190;SDS011;47004;51.366;12.348;2024-02-28T08:59:22;39.83;;;20.40;;
18190;SDS011;47004;51.366;12.348;2024-02-28T09:01:25;44.13;;;21.37;;
18190;SDS011;47004;51.366;12.348;2024-02-28T09:03:27;43.77;;;21.50;;
18190;SDS011;47004;51.366;12.348;2024-02-28T09:05:29;39.13;;;20.87;;
18190;SDS011;47004;51.366;12.348;2024-02-28T09:07:31;41.97;;;20.73;;
18190;SDS011;47004;51.366;12.348;2024-02-28T09:09:35;43.93;;;20.67;;
18190;SDS011;47004;51.366;12.348;2024-02-28T09:11:39;37.43;;;19.97;;
18190;SDS011;47004;51.366;12.348;2024-02-28T09:13:41;42.87;;;20.87;;
18190;SDS011;47004;51.366;12.348;2024-02-28T09:15:42;41.77;;;20.10;;
18190;SDS011;47004;51.366;12.348;2024-02-28T09:17:44;38.97;;;19.43;;
18190;SDS011;47004;51.366;12.348;2024-02-28T09:19:46;38.63;;;18.63;;
18190;SDS011;47004;51.366;12.348;2024-02-28T09:21:48;25.80;;;13.70;;
18190;SDS011;47004;51.366;12.348;2024-02-28T09:23:50;28.77;;;14.20;;
18190;SDS011;47004;51.366;12.348;2024-02-28T09:25:52;30.47;;;15.17;;
18190;SDS011;47004;51.366;12.348;2024-02-28T09:27:57;25.87;;;13.93;;
18190;SDS011;47004;51.366;12.348;2024-02-28T09:30:00;27.97;;;15.00;;
18190;SDS011;47004;51.366;12.348;2024-02-28T09:32:03;24.77;;;12.97;;
18190;SDS011;47004;51.366;12.348;2024-02-28T09:34:05;26.33;;;14.00;;
18190;SDS011;47004;51.366;12.348;2024-02-28T09:36:09;37.87;;;18.63;;
18190;SDS011;47004;51.366;12.348;2024-02-28T09:38:11;34.90;;;17.77;;
18190;SDS011;47004;51.366;12.348;2024-02-28T09:40:12;36.13;;;18.90;;
18190;SDS011;47004;51.366;12.348;2024-02-28T09:42:14;35.00;;;17.80;;
18190;SDS011;47004;51.366;12.348;2024-02-28T09:44:18;37.07;;;20.00;;
18190;SDS011;47004;51.366;12.348;2024-02-28T09:46:23;40.07;;;20.23;;
18190;SDS011;47004;51.366;12.348;2024-02-28T09:48:27;32.93;;;17.40;;
18190;SDS011;47004;51.366;12.348;2024-02-28T09:50:29;27.87;;;14.57;;
18190;SDS011;47004;51.366;12.348;2024-02-28T09:52:31;25.77;;;13.47;;
18190;SDS011;47004;51.366;12.348;2024-02-28T09:54:33;24.37;;;12.87;;
18190;SDS011;47004;51.366;12.348;2024-02-28T09:56:35;22.83;;;12.37;;
18190;SDS011;47004;51.366;12.348;2024-02-28T09:58:38;26.67;;;13.23;;
18190;SDS011;47004;51.366;12.348;2024-02-28T10:00:43;26.93;;;13.40;;
18190;SDS011;47004;51.366;12.348;2024-02-28T10:02:46;28.10;;;14.30;;
18190;SDS011;47004;51.366;12.348;2024-02-28T10:04:49;25.97;;;13.27;;
18190;SDS011;47004;51.366;12.348;2024-02-28T10:06:52;25.83;;;14.17;;
18190;SDS011;47004;51.366;12.348;2024-02-28T10:08:54;30.40;;;15.17;;
18190;SDS011;47004;51.366;12.348;2024-02-28T10:10:55;27.67;;;13.50;;
18190;SDS011;47004;51.366;12.348;2024-02-28T10:12:58;28.73;;;14.33;;
18190;SDS011;47004;51.366;12.348;2024-02-28T10:15:00;30.90;;;16.07;;
18190;SDS011;47004;51.366;12.348;2024-02-28T10:17:02;34.73;;;17.53;;
18190;SDS011;47004;51.366;12.348;2024-02-28T10:19:04;29.97;;;16.03;;
18190;SDS011;47004;51.366;12.348;2024-02-28T10:21:08;33.20;;;16.80;;
18190;SDS011;47004;51.366;12.348;2024-02-28T10:23:10;38.70;;;19.50;;
18190;SDS011;47004;51.366;12.348;2024-02-28T10:25:12;36.63;;;18.80;;
18190;SDS011;47004;51.366;12.348;2024-02-28T10:27:15;33.47;;;18.13;;
18190;SDS011;47004;51.366;12.348;2024-02-28T10:29:19;36.40;;;18.43;;
18190;SDS011;47004;51.366;12.348;2024-02-28T10:31:21;38.03;;;18.87;;
18190;SDS011;47004;51.366;12.348;2024-02-28T10:33:26;39.33;;;19.63;;
18190;SDS011;47004;51.366;12.348;2024-02-28T10:35:29;40.67;;;20.20;;
18190;SDS011;47004;51.366;12.348;2024-02-28T10:37:31;38.27;;;19.80;;
18190;SDS011;47004;51.366;12.348;2024-02-28T10:39:33;38.80;;;19.47;;
18190;SDS011;47004;51.366;12.348;2024-02-28T10:41:36;41.50;;;18.90;;
18190;SDS011;47004;51.366;12.348;2024-02-28T10:43:38;38.13;;;18.50;;
18190;SDS011;47004;51.366;12.348;2024-02-28T10:45:42;38.20;;;18.07;;
18190;SDS011;47004;51.366;12.348;2024-02-28T10:47:45;36.00;;;17.03;;
18190;SDS011;47004;51.366;12.348;2024-02-28T10:49:49;30.63;;;16.43;;
18190;SDS011;47004;51.366;12.348;2024-02-28T10:51:51;29.40;;;15.53;;
18190;SDS011;47004;51.366;12.348;2024-02-28T10:54:00;30.43;;;15.70;;
18190;SDS011;47004;51.366;12.348;2024-02-28T10:56:10;31.07;;;15.03;;
18190;SDS011;47004;51.366;12.348;2024-02-28T10:58:14;31.77;;;15.50;;
18190;SDS011;47004;51.366;12.348;2024-02-28T11:00:16;28.90;;;15.13;;
18190;SDS011;47004;51.366;12.348;2024-02-28T11:02:18;32.67;;;15.10;;
18190;SDS011;47004;51.366;12.348;2024-02-28T11:04:20;27.30;;;14.20;;
18190;SDS011;47004;51.366;12.348;2024-02-28T11:06:24;31.33;;;14.47;;
18190;SDS011;47004;51.366;12.348;2024-02-28T11:08:26;24.30;;;12.93;;
18190;SDS011;47004;51.366;12.348;2024-02-28T11:10:30;26.40;;;13.00;;
18190;SDS011;47004;51.366;12.348;2024-02-28T11:12:33;24.60;;;12.47;;
18190;SDS011;47004;51.366;12.348;2024-02-28T11:14:37;24.93;;;12.37;;
18190;SDS011;47004;51.366;12.348;2024-02-28T11:16:39;21.77;;;11.83;;
18190;SDS011;47004;51.366;12.348;2024-02-28T11:18:47;24.77;;;12.73;;
18190;SDS011;47004;51.366;12.348;2024-02-28T11:20:49;24.93;;;13.40;;
18190;SDS011;47004;51.366;12.348;2024-02-28T11:22:57;21.77;;;11.40;;
18190;SDS011;47004;51.366;12.348;2024-02-28T11:25:01;21.27;;;11.10;;
18190;SDS011;47004;51.366;12.348;2024-02-28T11:27:04;23.23;;;11.10;;
18190;SDS011;47004;51.366;12.348;2024-02-28T11:29:07;21.07;;;11.13;;
18190;SDS011;47004;51.366;12.348;2024-02-28T11:31:12;19.93;;;10.20;;
18190;SDS011;47004;51.366;12.348;2024-02-28T11:33:14;19.20;;;10.07;;
18190;SDS011;47004;51.366;12.348;2024-02-28T11:35:16;22.37;;;11.23;;
18190;SDS011;47004;51.366;12.348;2024-02-28T11:37:18;22.50;;;11.03;;
18190;SDS011;47004;51.366;12.348;2024-02-28T11:39:24;20.17;;;10.87;;
18190;SDS011;47004;51.366;12.348;2024-02-28T11:41:26;20.07;;;10.43;;
18190;SDS011;47004;51.366;12.348;2024-02-28T11:43:30;20.27;;;10.50;;
18190;SDS011;47004;51.366;12.348;2024-02-28T11:45:31;19.90;;;10.50;;